Time;durP1;ratioP1;P1;durP2;ratioP2;P2;SDS_P1;SDS_P2;PMS_P1;PMS_P2;Temp;Humidity;BMP_temperature;BMP_pressure;BME280_temperature;BME280_humidity;BME280_pressure;Samples;Min_cycle;Max_cycle;Signal;HPM_P1;HPM_P2
2022/05/21 00:01:46;;;;;;;26.48;3.95;;;;;;;12.17;92.23;101795.63;4969802;28;20039;-82
2022/05/21 00:04:12;;;;;;;26.92;3.83;;;;;;;12.20;92.28;101786.34;4964251;29;20033;-78
2022/05/21 00:06:38;;;;;;;24.58;3.35;;;;;;;12.21;92.29;101793.41;4978029;28;20480;-82
2022/05/21 00:09:04;;;;;;;26.17;3.85;;;;;;;12.24;92.05;101787.66;4986806;28;20515;-81
2022/05/21 00:11:29;;;;;;;24.75;3.05;;;;;;;12.29;92.06;101788.00;4966412;28;20020;-80
2022/05/21 00:13:55;;;;;;;27.77;4.68;;;;;;;12.29;92.10;101791.53;4960749;29;20028;-79
2022/05/21 00:16:22;;;;;;;19.92;3.47;;;;;;;12.32;92.18;101798.44;4969701;28;20070;-80
2022/05/21 00:18:48;;;;;;;31.45;3.90;;;;;;;12.38;92.13;101796.97;4972277;28;20129;-80
2022/05/21 00:21:13;;;;;;;24.50;3.90;;;;;;;12.39;92.00;101804.88;4969801;28;20019;-80
2022/05/21 00:23:39;;;;;;;33.83;4.38;;;;;;;12.42;91.99;101807.22;4972977;28;20026;-79
2022/05/21 00:26:07;;;;;;;29.23;4.15;;;;;;;12.46;92.00;101795.09;4973716;28;20019;-79
2022/05/21 00:28:33;;;;;;;32.20;4.60;;;;;;;12.47;92.16;101794.06;4966378;28;20019;-79
2022/05/21 00:30:59;;;;;;;29.75;4.50;;;;;;;12.51;92.01;101798.13;4971464;28;20003;-80
2022/05/21 00:33:24;;;;;;;33.13;4.40;;;;;;;12.54;92.10;101815.84;4970490;28;20039;-80
2022/05/21 00:35:51;;;;;;;22.23;3.97;;;;;;;12.54;91.72;101796.09;4991590;28;20033;-79
2022/05/21 00:38:16;;;;;;;19.30;3.33;;;;;;;12.56;91.99;101802.13;4996478;28;20438;-80
2022/05/21 00:40:42;;;;;;;35.55;4.85;;;;;;;12.58;92.17;101810.91;5002821;28;20126;-79
2022/05/21 00:43:32;;;;;;;27.70;3.92;;;;;;;12.59;91.98;101807.22;4997606;28;20042;-79
2022/05/21 00:45:59;;;;;;;24.77;4.20;;;;;;;12.60;91.82;101809.72;4992133;28;20082;-79
2022/05/21 00:48:25;;;;;;;33.00;6.25;;;;;;;12.58;91.84;101800.94;4991350;28;20034;-79
2022/05/21 00:50:51;;;;;;;26.00;3.97;;;;;;;12.56;92.00;101802.13;4986323;28;20023;-80
2022/05/21 00:53:16;;;;;;;26.35;4.10;;;;;;;12.52;92.31;101807.88;4965163;28;20114;-80
2022/05/21 00:55:42;;;;;;;30.48;3.67;;;;;;;12.53;92.67;101808.72;4966845;28;20007;-81
2022/05/21 01:00:54;;;;;;;37.67;4.38;;;;;;;12.46;93.12;101797.78;4987485;28;20070;-79
2022/05/21 01:03:20;;;;;;;37.22;4.40;;;;;;;12.45;93.19;101796.09;4990965;28;20078;-80
2022/05/21 01:05:46;;;;;;;41.35;4.82;;;;;;;12.44;93.51;101805.19;4990433;28;20043;-79
2022/05/21 01:08:12;;;;;;;40.17;5.10;;;;;;;12.43;93.58;101792.72;4954912;28;20023;-81
2022/05/21 01:10:42;;;;;;;31.40;4.78;;;;;;;12.43;93.68;101808.09;4994656;28;20034;-80
2022/05/21 01:13:14;;;;;;;34.58;5.30;;;;;;;12.42;93.63;101809.91;4983769;28;20054;-79
2022/05/21 01:15:43;;;;;;;36.60;4.72;;;;;;;12.44;93.53;101804.38;4998300;28;20039;-78
2022/05/21 01:18:09;;;;;;;37.35;4.97;;;;;;;12.42;93.39;101806.38;4985992;28;20034;-78
2022/05/21 01:20:47;;;;;;;47.50;5.18;;;;;;;12.40;93.53;101809.28;4995937;28;20052;-78
2022/05/21 01:23:14;;;;;;;42.33;4.43;;;;;;;12.41;93.71;101804.72;4977209;28;20045;-80
2022/05/21 01:25:41;;;;;;;43.17;5.47;;;;;;;12.41;93.85;101805.56;4994563;28;20471;-80
2022/05/21 01:28:09;;;;;;;33.65;4.97;;;;;;;12.41;94.05;101810.94;4989934;28;20031;-79
2022/05/21 01:30:38;;;;;;;36.00;5.10;;;;;;;12.41;93.99;101824.44;4980889;28;20031;-79
2022/05/21 01:33:06;;;;;;;38.40;5.13;;;;;;;12.40;94.17;101814.66;4983929;28;20078;-81
2022/05/21 01:35:32;;;;;;;40.30;5.18;;;;;;;12.36;94.03;101809.78;4994530;28;20054;-81
2022/05/21 01:37:58;;;;;;;48.55;5.65;;;;;;;12.30;94.16;101814.84;4993824;28;20063;-82
2022/05/21 01:40:23;;;;;;;30.75;4.28;;;;;;;12.26;94.52;101818.03;4994172;28;20301;-80
2022/05/21 01:44:37;;;;;;;46.15;5.43;;;;;;;12.23;94.69;101812.97;4980799;28;20073;-80
2022/05/21 01:45:35;;;;;;;51.85;4.05;;;;;;;12.20;94.62;101810.63;4985194;28;20054;-78
2022/05/21 01:48:02;;;;;;;45.13;5.13;;;;;;;12.17;94.68;101814.50;4965095;28;20062;-80
2022/05/21 01:50:27;;;;;;;33.70;4.33;;;;;;;12.15;94.69;101805.72;4964676;28;20093;-79
2022/05/21 01:52:53;;;;;;;42.33;4.45;;;;;;;12.16;94.69;101809.25;4964160;28;20030;-79
2022/05/21 01:55:18;;;;;;;42.88;5.07;;;;;;;12.16;94.61;101822.75;4985872;28;20038;-77
2022/05/21 01:57:44;;;;;;;41.40;4.60;;;;;;;12.15;94.32;101807.59;4984921;28;20065;-81
2022/05/21 02:00:10;;;;;;;44.15;5.53;;;;;;;12.16;94.11;101815.50;4984922;28;20031;-77
2022/05/21 02:02:35;;;;;;;27.52;3.78;;;;;;;12.16;94.09;101811.97;4983123;28;20035;-79
2022/05/21 02:05:01;;;;;;;39.67;5.57;;;;;;;12.16;94.08;101820.06;4964417;28;20022;-79
2022/05/21 02:07:26;;;;;;;29.05;4.05;;;;;;;12.14;93.83;101820.25;4967408;28;20027;-79
2022/05/21 02:09:51;;;;;;;42.17;5.35;;;;;;;12.13;93.83;101817.69;4966111;28;20042;-80
2022/05/21 02:12:18;;;;;;;33.90;4.38;;;;;;;12.12;93.66;101821.44;4984412;28;20046;-79
2022/05/21 02:14:44;;;;;;;30.83;3.90;;;;;;;12.12;93.59;101824.13;4982457;28;20073;-79
2022/05/21 02:17:09;;;;;;;42.05;4.43;;;;;;;12.12;93.46;101818.72;4982832;28;20054;-79
2022/05/21 02:19:34;;;;;;;32.78;4.60;;;;;;;12.13;93.36;101823.09;4985072;28;20026;-79
2022/05/21 02:22:00;;;;;;;38.03;5.13;;;;;;;12.13;93.16;101823.09;4999044;28;20027;-78
2022/05/21 02:24:25;;;;;;;31.65;3.60;;;;;;;12.12;93.16;101821.44;4977371;28;20034;-79
2022/05/21 02:26:50;;;;;;;45.88;4.38;;;;;;;12.11;93.03;101820.56;4997257;28;20057;-77
2022/05/21 02:29:18;;;;;;;30.13;4.15;;;;;;;12.12;92.81;101821.44;4994082;28;20030;-78
2022/05/21 02:31:43;;;;;;;36.45;3.95;;;;;;;12.11;93.03;101831.34;4971380;28;20034;-77
2022/05/21 02:34:08;;;;;;;30.20;4.35;;;;;;;12.10;93.07;101818.88;5039825;22;20054;-80
2022/05/21 02:39:38;;;;;;;31.45;3.90;;;;;;;12.11;92.95;101825.13;4935945;29;20054;-80
2022/05/21 02:42:03;;;;;;;30.30;3.60;;;;;;;12.10;92.71;101829.69;4934404;29;20036;-79
2022/05/21 02:44:29;;;;;;;36.88;4.13;;;;;;;12.04;93.04;101831.19;4952602;28;20630;-81
2022/05/21 02:46:55;;;;;;;40.00;3.72;;;;;;;12.03;92.94;101828.66;4993642;28;20113;-83
2022/05/21 02:49:21;;;;;;;34.83;4.05;;;;;;;12.05;92.34;101838.25;4995907;28;20112;-85
2022/05/21 02:51:47;;;;;;;29.15;4.32;;;;;;;12.06;92.12;101829.19;4998450;28;20072;-82
2022/05/21 02:54:14;;;;;;;25.73;4.03;;;;;;;12.07;91.68;101830.84;4996738;28;20026;-82
2022/05/21 02:56:48;;;;;;;38.23;6.03;;;;;;;12.05;91.63;101832.03;4991425;28;20022;-83
2022/05/21 02:59:14;;;;;;;43.70;4.75;;;;;;;12.03;91.26;101824.13;4996735;28;20109;-81
2022/05/21 03:01:39;;;;;;;30.98;4.30;;;;;;;12.02;91.11;101825.13;4994955;28;20471;-81
2022/05/21 03:04:04;;;;;;;25.27;3.78;;;;;;;12.00;90.67;101821.72;4994759;28;20033;-81
2022/05/21 03:06:30;;;;;;;28.42;4.63;;;;;;;12.01;90.51;101823.44;4996598;28;20372;-84
2022/05/21 03:11:39;;;;;;;23.15;3.25;;;;;;;11.99;90.03;101836.25;4979754;28;20049;-82
2022/05/21 03:14:04;;;;;;;26.98;3.72;;;;;;;11.98;90.12;101825.59;4982177;28;20197;-81
2022/05/21 03:16:29;;;;;;;41.65;4.47;;;;;;;11.97;90.29;101832.88;4993443;28;20512;-81
2022/05/21 03:18:55;;;;;;;34.08;4.82;;;;;;;11.92;90.66;101824.44;4996157;28;20034;-81
2022/05/21 03:21:20;;;;;;;36.42;4.28;;;;;;;11.89;90.28;101832.84;4977748;28;20486;-81
2022/05/21 03:23:45;;;;;;;38.35;5.30;;;;;;;11.89;90.02;101832.84;4977729;28;20038;-81
2022/05/21 03:26:11;;;;;;;33.22;4.05;;;;;;;11.87;90.08;101837.56;4994289;28;20045;-82
2022/05/21 03:28:36;;;;;;;19.50;3.53;;;;;;;11.90;89.65;101829.16;4995010;28;20435;-80
2022/05/21 03:31:02;;;;;;;40.75;4.53;;;;;;;11.89;89.18;101832.84;4994150;28;20132;-80
2022/05/21 03:33:27;;;;;;;26.15;4.43;;;;;;;11.88;88.95;101846.53;4989689;28;20601;-80
2022/05/21 03:35:53;;;;;;;24.95;3.28;;;;;;;11.87;89.09;101845.66;4975828;28;20035;-81
2022/05/21 03:38:19;;;;;;;33.03;3.65;;;;;;;11.85;88.92;101844.97;4975863;28;20019;-82
2022/05/21 03:40:44;;;;;;;50.25;5.05;;;;;;;11.85;88.48;101850.38;4978868;28;20475;-81
2022/05/21 03:43:10;;;;;;;26.35;4.10;;;;;;;11.83;88.41;101852.38;4971789;28;20015;-82
2022/05/21 03:45:35;;;;;;;30.92;3.75;;;;;;;11.80;88.21;101848.16;4976927;28;20464;-83
2022/05/21 03:48:00;;;;;;;31.65;3.90;;;;;;;11.79;88.06;101849.16;4979406;28;20069;-83
2022/05/21 03:50:27;;;;;;;25.75;3.30;;;;;;;11.85;87.94;101847.66;4979393;28;20097;-82
2022/05/21 03:52:53;;;;;;;26.27;3.42;;;;;;;11.84;87.83;101846.81;4960610;28;20376;-82
2022/05/21 03:55:18;;;;;;;37.33;4.10;;;;;;;11.83;87.68;101855.06;4978949;28;20038;-81
2022/05/21 03:57:44;;;;;;;28.55;3.53;;;;;;;11.82;87.98;101850.66;4975884;28;20382;-81
2022/05/21 04:00:12;;;;;;;35.60;4.47;;;;;;;11.82;87.99;101856.06;4973341;28;20036;-82
2022/05/21 04:02:37;;;;;;;;;;;;;;;11.82;88.00;101850.66;4975499;28;20469;-80
2022/05/21 04:05:04;;;;;;;22.60;3.67;;;;;;;11.82;87.72;101851.53;4975438;28;20183;-81
2022/05/21 04:07:32;;;;;;;26.80;3.75;;;;;;;11.85;87.52;101855.75;4945377;28;20113;-81
2022/05/21 04:09:59;;;;;;;24.52;3.20;;;;;;;11.84;87.20;101852.19;4944647;28;20463;-81
2022/05/21 04:12:24;;;;;;;31.13;3.78;;;;;;;11.88;86.87;101850.06;4960056;28;20038;-83
2022/05/21 04:14:50;;;;;;;24.90;3.17;;;;;;;11.91;86.77;101856.97;4959172;28;20042;-82
2022/05/21 04:17:16;;;;;;;29.48;3.75;;;;;;;11.90;86.97;101861.53;4975146;28;20557;-79
2022/05/21 04:19:42;;;;;;;25.08;4.30;;;;;;;11.93;86.70;101872.00;4976597;28;20031;-80
2022/05/21 04:22:07;;;;;;;33.60;3.50;;;;;;;11.93;86.60;101874.69;4956894;28;20138;-82
2022/05/21 04:24:33;;;;;;;22.48;3.00;;;;;;;11.93;86.45;101872.00;4977696;28;20049;-80
2022/05/21 04:26:58;;;;;;;28.25;3.72;;;;;;;11.92;86.64;101880.25;4973871;28;20463;-81
2022/05/21 04:29:24;;;;;;;30.20;3.85;;;;;;;11.93;86.28;101872.00;4959861;28;20039;-81
2022/05/21 04:31:49;;;;;;;31.92;4.78;;;;;;;11.94;86.64;101870.13;4963583;28;20030;-81
2022/05/21 04:34:15;;;;;;;25.10;3.58;;;;;;;11.94;86.67;101879.06;4979112;28;20047;-81
2022/05/21 04:36:40;;;;;;;21.15;3.47;;;;;;;11.92;86.71;101881.06;4982072;28;20065;-80
2022/05/21 04:39:06;;;;;;;28.48;3.78;;;;;;;11.91;86.64;101874.00;4978440;28;20061;-82
2022/05/21 04:41:32;;;;;;;29.17;3.63;;;;;;;11.92;86.28;101881.06;4974789;28;20038;-80
2022/05/21 04:43:59;;;;;;;27.33;3.90;;;;;;;11.99;86.21;101887.50;4981010;28;20030;-81
2022/05/21 04:46:24;;;;;;;31.15;3.78;;;;;;;12.11;85.49;101889.88;4964430;28;20038;-82
2022/05/21 04:48:50;;;;;;;40.88;5.03;;;;;;;12.11;85.19;101890.72;4974805;28;20058;-79
2022/05/21 04:51:16;;;;;;;35.35;4.68;;;;;;;12.17;85.11;101894.63;4975947;28;20098;-79
2022/05/21 04:53:41;;;;;;;26.15;3.58;;;;;;;12.22;84.75;101893.13;4978670;28;20138;-80
2022/05/21 04:56:07;;;;;;;36.00;3.90;;;;;;;12.31;84.42;101891.25;4965122;28;20202;-79
2022/05/21 04:58:33;;;;;;;29.63;3.30;;;;;;;12.33;84.02;101902.75;4979296;28;20109;-81
2022/05/21 05:00:59;;;;;;;33.83;3.42;;;;;;;12.36;83.48;101899.69;4964681;28;20089;-80
2022/05/21 05:03:25;;;;;;;31.30;4.25;;;;;;;12.44;83.66;101904.25;4968106;28;20043;-81
2022/05/21 05:05:51;;;;;;;24.77;3.65;;;;;;;12.46;83.54;101903.09;4982645;28;20019;-82
2022/05/21 05:08:18;;;;;;;23.60;3.70;;;;;;;12.52;83.42;101915.91;4982429;28;20038;-81
2022/05/21 05:10:44;;;;;;;26.23;3.15;;;;;;;12.59;83.23;101917.94;4950052;28;20030;-82
2022/05/21 05:13:10;;;;;;;34.60;3.67;;;;;;;12.55;82.86;101919.28;4938706;28;20030;-80
2022/05/21 05:15:36;;;;;;;26.98;3.50;;;;;;;12.52;83.07;101917.75;4975721;28;20045;-81
2022/05/21 05:18:08;;;;;;;26.13;3.10;;;;;;;12.57;83.27;101919.97;4955315;28;20034;-81
2022/05/21 05:20:34;;;;;;;25.40;3.10;;;;;;;12.68;83.26;101922.31;4974676;28;20162;-79
2022/05/21 05:22:59;;;;;;;35.83;4.35;;;;;;;12.68;82.60;101925.03;4972700;28;20612;-80
2022/05/21 05:25:25;;;;;;;31.08;3.35;;;;;;;12.76;82.56;101933.13;4974524;28;20038;-81
2022/05/21 05:27:50;;;;;;;26.02;3.60;;;;;;;12.75;82.29;101934.13;4953934;28;20018;-80
2022/05/21 05:30:17;;;;;;;33.95;3.05;;;;;;;12.77;81.88;101934.81;4954547;28;20236;-80
2022/05/21 05:32:42;;;;;;;29.65;3.90;;;;;;;12.87;81.91;101940.03;4955866;28;20137;-81
2022/05/21 05:35:08;;;;;;;26.50;3.72;;;;;;;13.02;81.16;101945.59;4977580;28;20054;-81
2022/05/21 05:37:35;;;;;;;39.20;3.95;;;;;;;13.07;80.92;101935.13;4994277;28;20109;-80
2022/05/21 05:40:01;;;;;;;29.38;3.85;;;;;;;13.21;81.27;101942.50;4984977;28;20431;-81
2022/05/21 05:42:26;;;;;;;30.13;3.30;;;;;;;13.24;81.11;101947.56;4962525;28;20042;-81
2022/05/21 05:44:52;;;;;;;22.50;3.03;;;;;;;13.32;80.71;101938.63;4963407;28;20487;-81
2022/05/21 05:47:17;;;;;;;31.63;3.38;;;;;;;13.34;79.64;101953.66;4976380;28;20031;-80
2022/05/21 05:49:42;;;;;;;33.38;3.65;;;;;;;13.46;79.69;101939.78;4975828;28;20031;-79
2022/05/21 05:52:11;;;;;;;28.83;3.88;;;;;;;13.58;79.39;101935.66;4963388;28;20077;-80
2022/05/21 05:54:37;;;;;;;35.00;4.10;;;;;;;13.61;78.88;101940.72;4974194;28;20034;-79
2022/05/21 05:57:03;;;;;;;32.10;4.07;;;;;;;13.71;79.58;101930.53;4981526;28;20050;-80
2022/05/21 06:04:56;;;;;;;37.30;4.43;;;;;;;13.92;76.81;101940.75;4982735;28;20042;-80
2022/05/21 06:07:22;;;;;;;29.20;3.22;;;;;;;14.04;77.16;101938.50;4951015;28;20023;-80
2022/05/21 06:09:47;;;;;;;30.42;3.60;;;;;;;14.25;77.81;101948.69;4980957;28;20160;-80
2022/05/21 06:12:14;;;;;;;37.40;3.88;;;;;;;14.45;74.66;101954.47;4966728;28;20027;-80
2022/05/21 06:14:41;;;;;;;25.60;3.28;;;;;;;14.73;75.12;101959.38;4965219;28;20074;-80
2022/05/21 06:17:07;;;;;;;24.48;2.88;;;;;;;15.29;73.01;101971.56;4963734;28;20069;-81
2022/05/21 06:19:32;;;;;;;26.00;3.70;;;;;;;16.07;69.40;101969.31;4984517;28;20034;-83
2022/05/21 06:22:03;;;;;;;21.02;3.53;;;;;;;16.80;66.40;101975.53;4984107;28;20035;-80
2022/05/21 06:24:28;;;;;;;22.42;3.35;;;;;;;17.51;63.76;101982.75;4961000;28;20518;-80
2022/05/21 06:26:53;;;;;;;25.38;3.97;;;;;;;18.11;62.42;101991.22;4978846;28;20027;-81
2022/05/21 06:29:19;;;;;;;25.55;3.85;;;;;;;18.33;59.71;101992.78;4987019;28;20410;-80
2022/05/21 06:31:44;;;;;;;22.45;4.15;;;;;;;18.83;58.61;101987.88;4982500;28;20037;-80
2022/05/21 06:34:10;;;;;;;23.38;3.63;;;;;;;19.21;56.76;101989.94;4967798;28;20077;-80
2022/05/21 06:36:36;;;;;;;28.70;3.72;;;;;;;19.22;56.58;101985.31;4966123;28;20039;-79
2022/05/21 06:39:01;;;;;;;31.55;3.90;;;;;;;19.23;56.09;101993.31;4968405;28;20037;-79
2022/05/21 06:41:29;;;;;;;32.70;4.45;;;;;;;19.83;57.90;102004.16;4980535;28;20025;-80
2022/05/21 06:43:55;;;;;;;23.02;4.40;;;;;;;20.35;54.89;102001.38;4988724;28;20019;-80
2022/05/21 06:46:20;;;;;;;24.70;3.28;;;;;;;20.27;53.04;101999.72;4936041;28;20033;-84
2022/05/21 06:48:46;;;;;;;27.80;3.92;;;;;;;20.23;55.30;102012.19;4966523;28;20458;-80
2022/05/21 06:51:11;;;;;;;31.33;4.68;;;;;;;20.11;53.12;102005.72;4970085;28;20494;-80
2022/05/21 06:53:37;;;;;;;29.73;4.50;;;;;;;20.37;53.38;102004.72;4970580;28;20130;-81
2022/05/21 06:56:07;;;;;;;29.73;4.00;;;;;;;20.37;53.35;102010.19;4981136;28;20027;-80
2022/05/21 06:58:32;;;;;;;34.33;4.60;;;;;;;21.11;51.87;102016.88;4991836;28;20046;-79
2022/05/21 07:00:58;;;;;;;34.65;4.53;;;;;;;21.17;52.39;102029.69;4965788;28;20038;-80
2022/05/21 07:03:23;;;;;;;36.22;4.68;;;;;;;21.49;49.83;102015.94;4963598;28;20042;-80
2022/05/21 07:08:32;;;;;;;35.80;4.93;;;;;;;21.35;48.16;102030.78;4986578;28;20037;-81
2022/05/21 07:10:59;;;;;;;30.35;4.43;;;;;;;21.64;49.09;102027.38;4988036;28;20090;-79
2022/05/21 07:13:25;;;;;;;30.50;4.53;;;;;;;21.85;47.95;102027.97;4985528;28;20029;-80
2022/05/21 07:15:52;;;;;;;33.92;4.40;;;;;;;21.62;48.91;102032.22;4981947;28;20376;-79
2022/05/21 07:18:19;;;;;;;34.05;4.32;;;;;;;21.98;48.88;102044.25;4982817;28;20391;-79
2022/05/21 07:20:46;;;;;;;43.92;4.97;;;;;;;22.05;47.59;102045.03;4952510;28;20023;-80
2022/05/21 07:23:12;;;;;;;32.83;4.72;;;;;;;22.29;49.37;102050.66;4982760;28;20109;-79
2022/05/21 07:25:39;;;;;;;35.47;5.03;;;;;;;22.04;48.94;102054.31;4979775;28;20069;-80
2022/05/21 07:28:05;;;;;;;31.42;4.53;;;;;;;22.75;46.90;102055.53;4982031;28;20093;-81
2022/05/21 07:30:30;;;;;;;40.08;5.38;;;;;;;22.17;48.67;102057.94;4964515;28;20467;-80
2022/05/21 07:32:56;;;;;;;34.45;4.47;;;;;;;21.94;48.13;102051.28;4982302;28;20085;-80
2022/05/21 07:35:23;;;;;;;38.92;5.38;;;;;;;22.14;46.51;102068.34;4969800;28;20121;-80
2022/05/21 07:37:50;;;;;;;44.90;5.70;;;;;;;21.74;48.70;102058.88;4969888;28;20034;-80
2022/05/21 07:40:16;;;;;;;43.65;4.57;;;;;;;22.31;46.98;102070.47;4988819;28;20042;-80
2022/05/21 07:42:42;;;;;;;31.63;4.97;;;;;;;22.15;46.36;102080.13;4970829;28;20031;-82
2022/05/21 07:45:09;;;;;;;47.00;6.10;;;;;;;21.87;47.89;102080.66;4985548;28;20054;-80
2022/05/21 07:47:35;;;;;;;38.72;5.10;;;;;;;21.57;48.41;102069.59;4985053;28;20035;-82
2022/05/21 07:50:00;;;;;;;41.00;4.40;;;;;;;21.66;48.96;102073.69;4965099;28;20019;-81
2022/05/21 07:52:28;;;;;;;44.50;5.85;;;;;;;22.17;47.41;102080.75;4986983;28;20034;-80
2022/05/21 07:54:53;;;;;;;40.95;4.90;;;;;;;22.46;49.15;102076.41;4982513;28;20034;-79
2022/05/21 07:57:19;;;;;;;35.70;5.22;;;;;;;22.78;46.46;102079.75;4986579;28;20023;-80
2022/05/21 07:59:45;;;;;;;39.47;5.30;;;;;;;23.14;45.31;102079.84;4986382;28;20058;-79
2022/05/21 08:02:13;;;;;;;38.40;5.43;;;;;;;22.93;45.93;102079.31;4966442;28;20030;-79
2022/05/21 08:04:39;;;;;;;44.88;5.30;;;;;;;22.75;47.17;102076.66;4948999;28;20049;-80
2022/05/21 08:07:04;;;;;;;39.70;4.60;;;;;;;22.61;44.99;102077.88;4982939;28;20062;-82
2022/05/21 08:09:29;;;;;;;34.88;5.22;;;;;;;22.73;44.41;102087.84;4984736;28;20121;-79
2022/05/21 08:11:55;;;;;;;45.60;5.03;;;;;;;22.89;44.14;102089.09;4988965;28;20039;-80
2022/05/21 08:14:21;;;;;;;33.95;5.22;;;;;;;22.02;46.22;102089.34;4983810;28;20458;-81
2022/05/21 08:16:46;;;;;;;48.33;5.22;;;;;;;21.78;48.10;102093.00;4981840;28;20090;-79
2022/05/21 08:19:12;;;;;;;34.58;5.47;;;;;;;22.11;48.51;102098.09;4959407;28;20046;-80
2022/05/21 08:21:38;;;;;;;35.72;4.95;;;;;;;21.83;49.07;102106.84;4978771;28;20026;-79
2022/05/21 08:26:56;;;;;;;51.95;5.53;;;;;;;20.65;52.59;102099.31;4964004;28;20105;-80
2022/05/21 08:29:39;;;;;;;45.65;5.03;;;;;;;21.51;47.72;102098.69;4966117;28;20030;-80
2022/05/21 08:32:05;;;;;;;34.75;5.07;;;;;;;21.10;49.26;102091.84;4979373;28;20098;-80
2022/05/21 08:34:31;;;;;;;40.70;4.78;;;;;;;21.03;49.97;102099.25;4944439;28;20476;-80
2022/05/21 08:36:57;;;;;;;44.03;5.18;;;;;;;21.89;49.18;102100.47;4978681;28;20034;-79
2022/05/21 08:39:22;;;;;;;38.25;4.78;;;;;;;22.30;47.10;102096.22;4980245;28;20364;-80
2022/05/21 08:41:57;;;;;;;41.75;5.78;;;;;;;22.34;48.14;102086.47;4976924;28;20031;-79
2022/05/21 08:44:42;;;;;;;35.85;5.30;;;;;;;22.99;45.48;102083.06;4960704;28;20034;-82
2022/05/21 08:47:10;;;;;;;46.60;5.53;;;;;;;23.56;44.08;102093.53;4965978;28;20118;-80
2022/05/21 08:49:44;;;;;;;32.45;4.65;;;;;;;23.49;43.08;102087.34;4982408;28;20045;-81
2022/05/21 08:52:15;;;;;;;44.53;5.72;;;;;;;23.09;44.41;102101.69;4977989;28;20031;-79
2022/05/21 08:54:43;;;;;;;47.33;6.18;;;;;;;22.91;46.22;102103.44;4975472;28;20027;-80
2022/05/21 08:57:17;;;;;;;39.22;5.85;;;;;;;22.84;44.94;102105.41;4962004;28;20038;-79
2022/05/21 08:59:48;;;;;;;42.13;4.45;;;;;;;22.88;44.45;102114.88;4968067;28;20106;-79
2022/05/21 09:02:16;;;;;;;32.60;4.85;;;;;;;22.62;44.46;102113.34;4965096;28;20054;-78
2022/05/21 09:04:42;;;;;;;44.97;5.40;;;;;;;22.44;46.28;102111.44;4964247;28;20023;-79
2022/05/21 09:07:19;;;;;;;38.67;5.03;;;;;;;22.49;45.47;102089.66;4967226;28;20033;-79
2022/05/21 09:10:01;;;;;;;41.10;5.15;;;;;;;22.09;46.44;102095.59;4961382;28;20439;-80
2022/05/21 09:12:43;;;;;;;37.78;4.43;;;;;;;21.47;47.38;102094.75;4970488;28;20038;-79
2022/05/21 09:16:54;;;;;;;31.17;4.53;;;;;;;21.24;48.47;102087.94;4966115;28;20027;-82
2022/05/21 09:18:02;;;;;;;45.90;4.57;;;;;;;20.50;50.55;102088.59;4949194;28;20050;-80
2022/05/21 09:20:30;;;;;;;43.72;5.45;;;;;;;20.35;50.15;102092.47;4954091;28;20034;-82
2022/05/21 09:22:56;;;;;;;58.15;5.50;;;;;;;19.80;52.39;102099.31;4959539;28;20640;-80
2022/05/21 09:25:26;;;;;;;57.53;5.60;;;;;;;19.55;55.25;102105.44;4954244;28;20027;-83
2022/05/21 09:28:09;;;;;;;41.38;5.40;;;;;;;19.70;52.07;102105.25;4960829;28;20475;-80
2022/05/21 09:30:40;;;;;;;36.22;4.55;;;;;;;19.71;51.63;102093.25;4964555;28;20093;-81
2022/05/21 09:33:26;;;;;;;39.72;4.45;;;;;;;19.62;54.64;102099.97;4969540;28;20026;-81
2022/05/21 09:35:58;;;;;;;48.20;5.82;;;;;;;19.92;53.26;102094.91;4954941;28;20094;-80
2022/05/21 09:38:26;;;;;;;37.08;5.00;;;;;;;20.33;52.48;102102.78;4967195;28;20010;-80
2022/05/21 09:41:12;;;;;;;39.38;5.00;;;;;;;20.82;51.07;102104.00;4980184;28;20510;-82
2022/05/21 09:46:31;;;;;;;42.03;5.28;;;;;;;20.69;51.46;102101.34;4951140;29;20057;-81
2022/05/21 09:49:21;;;;;;;49.47;5.80;;;;;;;19.88;52.59;102099.09;4959458;29;20097;-81
2022/05/21 09:51:59;;;;;;;39.38;4.35;;;;;;;19.79;52.62;102090.28;4963181;29;20038;-81
2022/05/21 09:54:44;;;;;;;;;;;;;;;19.91;55.08;102094.06;4947151;29;20031;-81
2022/05/21 09:57:35;;;;;;;43.00;5.43;;;;;;;19.74;54.50;102098.28;4960764;29;19929;-79
2022/05/21 10:00:22;;;;;;;44.05;5.85;;;;;;;19.16;54.86;102111.72;4959773;29;20028;-79
2022/05/21 10:02:52;;;;;;;49.45;6.35;;;;;;;18.86;55.31;102117.53;4946691;29;20095;-81
2022/05/21 10:05:24;;;;;;;43.65;4.85;;;;;;;18.59;56.55;102122.88;4945309;29;20542;-81
2022/05/21 10:10:58;;;;;;;47.35;5.72;;;;;;;18.42;56.61;102127.81;4963573;29;20360;-80
2022/05/21 10:13:24;;;;;;;48.72;5.43;;;;;;;18.72;56.47;102126.69;4951722;29;20035;-80
2022/05/21 10:15:55;;;;;;;37.10;4.95;;;;;;;19.05;55.12;102116.72;4926642;29;20023;-80
2022/05/21 10:18:41;;;;;;;40.40;5.60;;;;;;;19.19;56.75;102127.66;4951346;28;20034;-81
2022/05/21 10:21:17;;;;;;;48.45;5.53;;;;;;;19.16;55.08;102128.09;4961405;28;20046;-80
2022/05/21 10:23:49;;;;;;;39.20;4.57;;;;;;;19.67;54.48;102125.63;4978393;28;20426;-81
2022/05/21 10:26:24;;;;;;;42.72;4.97;;;;;;;20.03;52.67;102118.00;4980161;28;20069;-82
2022/05/21 10:28:52;;;;;;;46.97;5.13;;;;;;;20.30;52.81;102130.53;4969354;28;20031;-81
2022/05/21 10:31:36;;;;;;;39.53;4.70;;;;;;;20.69;51.88;102128.72;4973205;28;20023;-81
2022/05/21 10:34:26;;;;;;;51.38;4.75;;;;;;;21.30;50.87;102130.03;4989007;28;20054;-81
2022/05/21 10:36:57;;;;;;;37.65;4.75;;;;;;;21.72;49.89;102137.72;4981184;28;20035;-79
2022/05/21 10:39:29;;;;;;;39.90;4.82;;;;;;;21.61;48.27;102131.91;4961830;28;20054;-80
2022/05/21 10:42:11;;;;;;;34.58;5.20;;;;;;;21.02;50.52;102133.19;4978491;28;20061;-81
2022/05/21 10:44:45;;;;;;;46.28;5.72;;;;;;;20.91;51.06;102134.72;4965636;28;20102;-80
2022/05/21 10:47:26;;;;;;;37.80;5.90;;;;;;;20.65;50.83;102132.97;4965582;28;20038;-82
2022/05/21 10:50:08;;;;;;;44.95;5.03;;;;;;;20.78;49.93;102132.06;4961945;28;20435;-81
2022/05/21 10:52:56;;;;;;;42.80;4.97;;;;;;;20.81;51.87;102137.91;4981941;28;20035;-81
2022/05/21 10:55:28;;;;;;;32.80;4.82;;;;;;;21.11;50.28;102142.78;4962967;28;20396;-80
2022/05/21 10:58:15;;;;;;;36.88;4.80;;;;;;;20.41;50.98;102136.41;4961674;28;20065;-80
2022/05/21 11:00:41;;;;;;;;;;;;;;;20.14;51.94;102131.00;4962147;28;20117;-80
2022/05/21 11:03:08;;;;;;;32.27;4.50;;;;;;;20.11;52.78;102136.91;4979194;28;19952;-80
2022/05/21 11:05:57;;;;;;;34.53;3.90;;;;;;;20.13;52.20;102145.72;4979613;28;20027;-79
2022/05/21 11:08:31;;;;;;;39.40;5.90;;;;;;;20.03;52.71;102139.84;4978482;28;20026;-80
2022/05/21 11:11:04;;;;;;;34.67;4.15;;;;;;;20.57;52.15;102141.41;4979623;28;20514;-80
2022/05/21 11:13:36;;;;;;;42.72;5.53;;;;;;;21.17;50.04;102139.19;4981405;28;20089;-81
2022/05/21 11:16:06;;;;;;;35.30;5.68;;;;;;;21.30;48.35;102138.25;4961716;28;20042;-80
2022/05/21 11:18:39;;;;;;;41.25;4.70;;;;;;;21.50;49.69;102140.03;4980228;28;20054;-81
2022/05/21 11:21:19;;;;;;;33.85;4.95;;;;;;;21.76;47.94;102133.47;4946055;28;20038;-81
2022/05/21 11:24:02;;;;;;;44.42;4.72;;;;;;;21.86;47.64;102133.81;4961699;28;20485;-80
2022/05/21 11:26:43;;;;;;;41.75;4.90;;;;;;;22.18;47.02;102144.66;4961833;28;20042;-80
2022/05/21 11:29:18;;;;;;;45.85;4.88;;;;;;;22.65;44.93;102150.47;4979849;28;20035;-81
2022/05/21 11:37:31;;;;;;;26.02;3.83;;;;;;;21.84;48.61;102147.72;4978661;28;20066;-80
2022/05/21 11:39:58;;;;;;;45.13;5.55;;;;;;;22.04;48.11;102153.03;4964466;28;20046;-79
2022/05/21 11:42:48;;;;;;;31.65;4.88;;;;;;;22.02;48.08;102146.91;4967191;28;20053;-80
2022/05/21 11:45:25;;;;;;;47.67;5.40;;;;;;;22.14;46.19;102144.25;4946010;28;20027;-81
2022/05/21 11:48:11;;;;;;;37.17;4.35;;;;;;;22.49;47.76;102143.69;4961834;28;20034;-80
2022/05/21 11:50:36;;;;;;;44.80;4.87;;;;;;;22.10;46.17;102146.63;4976640;28;20084;-81
2022/05/21 11:53:10;;;;;;;34.72;4.75;;;;;;;22.46;45.36;102150.47;4978969;28;20027;-80
2022/05/21 11:55:55;;;;;;;31.45;4.78;;;;;;;22.35;45.47;102145.72;4976313;28;20090;-80